createdAt,value
2023-05-03T00:00:08.222Z,14.23
2023-05-03T00:02:39.136Z,15.00
2023-05-03T00:05:15.157Z,19.03
2023-05-03T00:07:44.502Z,15.27
2023-05-03T00:10:15.678Z,14.33
2023-05-03T00:12:44.418Z,15.83
2023-05-03T00:15:13.117Z,14.30
2023-05-03T00:17:41.504Z,11.20
2023-05-03T00:20:12.107Z,11.97
2023-05-03T00:22:40.378Z,15.60
2023-05-03T00:25:10.254Z,13.17
2023-05-03T00:27:38.552Z,12.37
2023-05-03T00:30:07.325Z,13.93
2023-05-03T00:32:35.763Z,13.03
2023-05-03T00:35:04.181Z,12.97
2023-05-03T00:37:33.765Z,15.43
2023-05-03T00:40:02.127Z,12.20
2023-05-03T00:42:30.482Z,15.43
2023-05-03T00:44:58.639Z,17.73
2023-05-03T00:47:26.891Z,17.23
2023-05-03T00:49:55.091Z,12.47
2023-05-03T00:52:23.240Z,15.30
2023-05-03T00:54:52.753Z,12.40
2023-05-03T00:57:21.478Z,12.90
2023-05-03T00:59:50.065Z,11.77
2023-05-03T01:02:18.237Z,10.57
2023-05-03T01:04:46.751Z,12.10
2023-05-03T01:07:18.815Z,11.97
2023-05-03T01:09:50.893Z,17.23
2023-05-03T01:12:26.288Z,13.47
2023-05-03T01:15:00.999Z,17.10
2023-05-03T01:17:30.419Z,12.30
2023-05-03T01:20:02.456Z,14.97
2023-05-03T01:22:34.891Z,15.93
2023-05-03T01:25:07.527Z,14.70
2023-05-03T01:27:35.962Z,13.20
2023-05-03T01:30:05.475Z,14.87
2023-05-03T01:32:38.189Z,10.90
2023-05-03T01:35:08.238Z,11.77
2023-05-03T01:37:37.107Z,13.80
2023-05-03T01:40:08.526Z,10.27
2023-05-03T01:42:38.018Z,13.70
2023-05-03T01:45:06.671Z,18.47
2023-05-03T01:47:34.823Z,13.73
2023-05-03T01:50:03.193Z,14.33
2023-05-03T01:52:31.596Z,16.13
2023-05-03T01:55:00.135Z,14.77
2023-05-03T01:57:29.707Z,15.03
2023-05-03T01:59:57.861Z,15.37
2023-05-03T02:02:26.049Z,12.57
2023-05-03T02:04:54.417Z,16.67
2023-05-03T02:07:22.792Z,15.97
2023-05-03T02:09:51.231Z,15.77
2023-05-03T02:12:19.394Z,14.80
2023-05-03T02:14:48.905Z,17.53
2023-05-03T02:17:17.193Z,21.40
2023-05-03T02:19:45.406Z,14.67
2023-05-03T02:22:13.572Z,13.30
2023-05-03T02:24:41.731Z,16.93
2023-05-03T02:27:09.907Z,17.03
2023-05-03T02:29:38.078Z,11.17
2023-05-03T02:32:07.688Z,18.20
2023-05-03T02:34:36.304Z,15.13
2023-05-03T02:37:05.230Z,15.60
2023-05-03T02:39:33.401Z,17.30
2023-05-03T02:42:02.962Z,14.30
2023-05-03T02:44:33.078Z,16.67
2023-05-03T02:47:01.891Z,12.63
2023-05-03T02:49:31.470Z,20.47
2023-05-03T02:51:59.645Z,16.70
2023-05-03T02:54:27.836Z,21.37
2023-05-03T02:56:55.978Z,19.23
2023-05-03T02:59:24.134Z,13.23
2023-05-03T03:01:52.339Z,13.20
2023-05-03T03:04:20.875Z,21.57
2023-05-03T03:06:53.327Z,17.67
2023-05-03T03:09:21.607Z,18.50
2023-05-03T03:11:50.091Z,20.30
2023-05-03T03:14:18.244Z,17.83
2023-05-03T03:16:47.040Z,18.67
2023-05-03T03:19:15.190Z,21.93
2023-05-03T03:21:43.393Z,15.83
2023-05-03T03:24:12.953Z,17.70
2023-05-03T03:26:41.163Z,19.80
2023-05-03T03:29:10.803Z,17.27
2023-05-03T03:31:39.049Z,16.20
2023-05-03T03:34:07.243Z,17.20
2023-05-03T03:36:37.001Z,20.57
2023-05-03T03:39:05.544Z,19.17
2023-05-03T03:41:35.122Z,22.43
2023-05-03T03:44:03.334Z,25.47
2023-05-03T03:46:31.543Z,15.87
2023-05-03T03:48:59.743Z,18.77
2023-05-03T03:51:27.985Z,19.80
2023-05-03T03:53:56.210Z,19.60
2023-05-03T03:56:25.169Z,22.67
2023-05-03T03:58:54.822Z,19.43
2023-05-03T04:01:23.258Z,24.47
2023-05-03T04:03:51.582Z,21.37
2023-05-03T04:06:19.849Z,17.67
2023-05-03T04:08:48.048Z,23.50
2023-05-03T04:11:16.197Z,21.07
2023-05-03T04:13:44.375Z,25.60
2023-05-03T04:16:13.940Z,23.77
2023-05-03T04:18:42.666Z,17.37
2023-05-03T04:21:10.974Z,22.50
2023-05-03T04:23:39.334Z,19.57
2023-05-03T04:26:10.337Z,19.80
2023-05-03T04:28:45.352Z,19.13
2023-05-03T04:31:16.649Z,19.23
2023-05-03T04:33:46.060Z,24.97
2023-05-03T04:36:15.915Z,20.27
2023-05-03T04:38:44.107Z,21.47
2023-05-03T04:41:14.120Z,25.53
2023-05-03T04:43:44.131Z,20.90
2023-05-03T04:46:12.341Z,20.17
2023-05-03T04:48:41.861Z,23.03
2023-05-03T04:51:10.125Z,23.77
2023-05-03T04:53:38.312Z,19.50
2023-05-03T04:56:07.447Z,18.03
2023-05-03T04:58:36.979Z,18.00
2023-05-03T05:01:05.194Z,19.00
2023-05-03T05:03:34.268Z,22.83
2023-05-03T05:06:04.048Z,18.33
2023-05-03T05:08:32.454Z,22.33
2023-05-03T05:11:00.701Z,18.17
2023-05-03T05:13:28.866Z,19.33
2023-05-03T05:15:57.066Z,17.50
2023-05-03T05:18:25.375Z,17.50
2023-05-03T05:20:53.546Z,22.60
2023-05-03T05:23:23.046Z,23.07
2023-05-03T05:25:51.256Z,19.80
2023-05-03T05:28:19.492Z,21.13
2023-05-03T05:30:47.664Z,18.43
2023-05-03T05:33:17.490Z,19.80
2023-05-03T05:35:47.287Z,17.17
2023-05-03T05:38:15.538Z,16.40
2023-05-03T05:40:45.026Z,16.77
2023-05-03T05:43:13.232Z,18.03
2023-05-03T05:45:41.435Z,16.60
2023-05-03T05:48:09.613Z,15.60
2023-05-03T05:50:37.837Z,14.87
2023-05-03T05:53:06.048Z,16.57
2023-05-03T05:55:34.412Z,16.37
2023-05-03T05:58:04.015Z,13.40
2023-05-03T06:00:32.154Z,16.13
2023-05-03T06:03:00.445Z,12.67
2023-05-03T06:05:28.710Z,12.70
2023-05-03T06:07:56.945Z,13.30
2023-05-03T06:10:25.131Z,11.60
2023-05-03T06:12:53.338Z,10.43
2023-05-03T06:15:22.903Z,17.40
2023-05-03T06:17:51.173Z,18.85
2023-05-03T06:20:19.521Z,12.80
2023-05-03T06:22:47.662Z,13.37
2023-05-03T06:25:17.818Z,17.50
2023-05-03T06:27:46.383Z,10.47
2023-05-03T06:30:14.982Z,14.50
2023-05-03T06:32:44.668Z,11.60
2023-05-03T06:35:12.916Z,12.50
2023-05-03T06:37:43.489Z,11.43
2023-05-03T06:40:11.899Z,9.60
2023-05-03T06:42:40.120Z,13.67
2023-05-03T06:45:08.796Z,10.07
2023-05-03T06:47:37.240Z,13.97
2023-05-03T06:50:07.533Z,12.67
2023-05-03T06:52:35.763Z,13.40
2023-05-03T06:55:04.699Z,15.30
2023-05-03T06:57:32.953Z,12.90
2023-05-03T07:00:01.294Z,12.80
2023-05-03T07:02:30.048Z,12.10
2023-05-03T07:05:01.311Z,11.13
2023-05-03T07:07:30.865Z,14.23
2023-05-03T07:09:59.066Z,12.00
2023-05-03T07:12:28.329Z,12.30
2023-05-03T07:14:56.982Z,10.07
2023-05-03T07:17:25.446Z,11.13
2023-05-03T07:19:54.072Z,13.10
2023-05-03T07:22:24.810Z,11.27
2023-05-03T07:24:54.923Z,14.40
2023-05-03T07:27:23.304Z,11.93
2023-05-03T07:29:51.454Z,15.00
2023-05-03T07:32:19.719Z,10.93
2023-05-03T07:34:47.939Z,10.13
2023-05-03T07:37:16.258Z,9.23
2023-05-03T07:39:45.504Z,12.33
2023-05-03T07:42:15.033Z,9.73
2023-05-03T07:44:43.287Z,10.30
2023-05-03T07:47:11.470Z,13.03
2023-05-03T07:49:39.664Z,8.53
2023-05-03T07:52:07.841Z,9.77
2023-05-03T07:54:36.011Z,11.33
2023-05-03T07:57:04.290Z,8.93
2023-05-03T07:59:33.808Z,10.10
2023-05-03T08:02:02.250Z,8.33
2023-05-03T08:04:30.709Z,8.60
2023-05-03T08:07:01.993Z,10.40
2023-05-03T08:09:30.281Z,10.50
2023-05-03T08:11:58.783Z,6.17
2023-05-03T08:14:27.872Z,7.47
2023-05-03T08:16:57.370Z,6.47
2023-05-03T08:19:25.694Z,7.50
2023-05-03T08:21:54.152Z,9.77
2023-05-03T08:24:22.343Z,7.90
2023-05-03T08:26:50.728Z,8.10
2023-05-03T08:29:18.911Z,10.23
2023-05-03T08:31:47.296Z,10.77
2023-05-03T08:34:16.973Z,8.03
2023-05-03T08:36:45.484Z,8.77
2023-05-03T08:39:15.183Z,7.57
2023-05-03T08:41:43.412Z,7.07
2023-05-03T08:44:13.371Z,7.13
2023-05-03T08:46:41.578Z,7.83
2023-05-03T08:49:09.787Z,9.40
2023-05-03T08:51:42.086Z,8.40
2023-05-03T08:54:10.298Z,7.97
2023-05-03T08:56:42.149Z,8.13
2023-05-03T08:59:11.666Z,11.23
2023-05-03T09:01:40.483Z,7.63
2023-05-03T09:04:08.911Z,5.53
2023-05-03T09:06:39.077Z,6.93
2023-05-03T09:09:08.651Z,10.10
2023-05-03T09:11:38.490Z,7.10
2023-05-03T09:14:10.936Z,11.40
2023-05-03T09:16:39.686Z,9.07
2023-05-03T09:19:09.532Z,11.33
2023-05-03T09:21:39.133Z,7.10
2023-05-03T09:24:14.654Z,9.27
2023-05-03T09:26:42.835Z,7.37
2023-05-03T09:29:12.651Z,7.07
2023-05-03T09:31:59.526Z,8.07
2023-05-03T09:34:27.799Z,9.90
2023-05-03T09:36:57.328Z,7.87
2023-05-03T09:39:25.567Z,7.57
2023-05-03T09:41:53.746Z,7.17
2023-05-03T09:44:22.190Z,9.67
2023-05-03T09:47:05.991Z,10.13
2023-05-03T09:49:34.280Z,9.30
2023-05-03T09:52:04.332Z,7.13
2023-05-03T09:54:32.511Z,8.87
2023-05-03T09:57:02.306Z,10.33
2023-05-03T09:59:30.696Z,10.07
2023-05-03T10:01:59.921Z,7.47
2023-05-03T10:04:28.749Z,8.10
2023-05-03T10:07:00.432Z,6.93
2023-05-03T10:09:32.017Z,8.37
2023-05-03T10:12:01.791Z,8.80
2023-05-03T10:14:30.045Z,8.67
2023-05-03T10:17:00.544Z,8.57
2023-05-03T10:19:30.986Z,11.50
2023-05-03T10:22:04.208Z,9.20
2023-05-03T10:24:33.912Z,8.50
2023-05-03T10:27:02.119Z,7.07
2023-05-03T10:30:04.126Z,8.47
2023-05-03T10:32:33.329Z,10.20
2023-05-03T10:35:03.563Z,7.33
2023-05-03T10:37:32.268Z,8.60
2023-05-03T10:40:09.682Z,8.77
2023-05-03T10:42:39.054Z,9.33
2023-05-03T10:45:09.902Z,7.57
2023-05-03T10:47:40.615Z,8.93
2023-05-03T10:50:28.161Z,9.87
2023-05-03T10:52:56.540Z,8.50
2023-05-03T10:55:26.737Z,10.63
2023-05-03T10:57:56.417Z,11.10
2023-05-03T11:00:26.049Z,7.43
2023-05-03T11:03:05.995Z,10.60
2023-05-03T11:05:34.743Z,11.30
2023-05-03T11:08:13.094Z,12.30
2023-05-03T11:10:42.762Z,12.67
2023-05-03T11:13:11.068Z,11.90
2023-05-03T11:15:39.784Z,9.63
2023-05-03T11:18:08.742Z,8.70
2023-05-03T11:20:37.412Z,7.53
2023-05-03T11:23:07.040Z,12.30
2023-05-03T11:25:35.530Z,7.57
2023-05-03T11:28:05.736Z,8.63
2023-05-03T11:30:35.060Z,12.07
2023-05-03T11:33:03.803Z,10.23
2023-05-03T11:35:32.939Z,7.93
2023-05-03T11:38:01.181Z,11.17
2023-05-03T11:40:29.330Z,9.13
2023-05-03T11:42:58.559Z,9.20
2023-05-03T11:45:29.008Z,9.30
2023-05-03T11:47:57.826Z,10.83
2023-05-03T11:50:29.711Z,12.20
2023-05-03T11:52:58.267Z,10.83
2023-05-03T11:55:26.406Z,9.23
2023-05-03T11:57:57.430Z,11.77
2023-05-03T12:00:26.427Z,8.67
2023-05-03T12:02:56.155Z,11.03
2023-05-03T12:05:25.046Z,9.57
2023-05-03T12:07:53.924Z,8.23
2023-05-03T12:10:26.242Z,9.03
2023-05-03T12:12:57.089Z,12.03
2023-05-03T12:15:30.219Z,7.60
2023-05-03T12:18:01.025Z,9.57
2023-05-03T12:23:04.309Z,10.63
2023-05-03T12:25:34.413Z,8.40
2023-05-03T12:28:17.583Z,8.77
2023-05-03T12:30:47.725Z,7.67
2023-05-03T12:33:21.883Z,10.87
2023-05-03T12:35:53.276Z,9.20
2023-05-03T12:38:23.842Z,10.00
2023-05-03T12:40:53.620Z,10.13
2023-05-03T12:43:22.195Z,12.43
2023-05-03T12:46:02.175Z,11.00
2023-05-03T12:48:39.500Z,8.83
2023-05-03T12:51:19.126Z,9.13
2023-05-03T12:53:54.379Z,12.60
2023-05-03T12:56:25.317Z,11.37
2023-05-03T12:59:07.720Z,11.17
2023-05-03T13:06:46.988Z,9.17
2023-05-03T13:11:49.952Z,9.10
2023-05-03T13:14:18.729Z,10.33
2023-05-03T13:16:47.688Z,8.43
2023-05-03T13:19:17.869Z,9.87
2023-05-03T13:21:48.740Z,12.87
2023-05-03T13:24:17.326Z,10.03
2023-05-03T13:26:45.573Z,11.83
2023-05-03T13:29:13.793Z,11.73
2023-05-03T13:31:42.297Z,8.47
2023-05-03T13:34:10.513Z,11.10
2023-05-03T13:36:40.020Z,8.70
2023-05-03T13:39:10.238Z,10.70
2023-05-03T13:41:40.761Z,8.40
2023-05-03T13:44:09.244Z,12.10
2023-05-03T13:46:38.055Z,9.90
2023-05-03T13:49:07.333Z,7.27
2023-05-03T13:51:35.942Z,8.03
2023-05-03T13:54:07.819Z,8.50
2023-05-03T13:56:36.510Z,9.73
2023-05-03T13:59:05.294Z,11.03
2023-05-03T14:01:33.522Z,8.67
2023-05-03T14:04:01.766Z,9.47
2023-05-03T14:06:32.751Z,10.47
2023-05-03T14:09:02.194Z,6.97
2023-05-03T14:11:32.207Z,6.73
2023-05-03T14:14:00.720Z,7.17
2023-05-03T14:19:00.897Z,8.47
2023-05-03T14:21:31.656Z,7.30
2023-05-03T14:23:59.918Z,7.37
2023-05-03T14:26:29.308Z,9.30
2023-05-03T14:28:59.309Z,7.87
2023-05-03T14:31:27.510Z,6.33
2023-05-03T14:33:55.774Z,9.33
2023-05-03T14:36:24.053Z,7.87
2023-05-03T14:38:52.224Z,6.30
2023-05-03T14:41:21.648Z,7.70
2023-05-03T14:43:49.846Z,9.87
2023-05-03T14:46:19.394Z,7.93
2023-05-03T14:48:47.594Z,9.00
2023-05-03T14:51:15.937Z,6.63
2023-05-03T14:53:44.107Z,7.73
2023-05-03T14:56:12.361Z,9.80
2023-05-03T14:58:40.559Z,8.90
2023-05-03T15:01:08.825Z,6.77
2023-05-03T15:03:38.513Z,8.83
2023-05-03T15:06:06.797Z,8.43
2023-05-03T15:08:34.938Z,6.73
2023-05-03T15:11:03.202Z,9.20
2023-05-03T15:13:31.686Z,7.63
2023-05-03T15:15:59.870Z,8.17
2023-05-03T15:18:28.111Z,10.50
2023-05-03T15:20:58.085Z,8.33
2023-05-03T15:23:26.271Z,10.30
2023-05-03T15:25:54.679Z,10.07
2023-05-03T15:28:22.920Z,12.43
2023-05-03T15:30:51.502Z,8.97
2023-05-03T15:33:19.922Z,10.13
2023-05-03T15:35:48.280Z,9.47
2023-05-03T15:38:18.407Z,10.80
2023-05-03T15:40:46.573Z,10.23
2023-05-03T15:43:14.774Z,7.77
2023-05-03T15:45:42.944Z,8.77
2023-05-03T15:48:11.218Z,9.50
2023-05-03T15:50:39.449Z,7.00
2023-05-03T15:53:07.749Z,8.27
2023-05-03T15:55:37.358Z,10.93
2023-05-03T15:58:07.356Z,7.70
2023-05-03T16:00:35.772Z,7.70
2023-05-03T16:03:03.962Z,11.67
2023-05-03T16:05:32.291Z,12.77
2023-05-03T16:08:00.658Z,6.83
2023-05-03T16:10:29.548Z,10.23
2023-05-03T16:12:59.102Z,8.63
2023-05-03T16:15:27.290Z,7.43
2023-05-03T16:17:55.640Z,9.30
2023-05-03T16:20:23.908Z,7.13
2023-05-03T16:22:52.925Z,8.23
2023-05-03T16:25:21.548Z,9.80
2023-05-03T16:27:49.845Z,7.93
2023-05-03T16:30:19.408Z,13.20
2023-05-03T16:32:48.043Z,6.83
2023-05-03T16:35:16.381Z,7.50
2023-05-03T16:37:44.607Z,6.90
2023-05-03T16:40:12.929Z,10.60
2023-05-03T16:42:41.488Z,7.03
2023-05-03T16:45:10.655Z,11.33
2023-05-03T16:47:40.312Z,8.93
2023-05-03T16:50:09.455Z,7.83
2023-05-03T16:52:39.859Z,7.30
2023-05-03T16:55:09.010Z,9.80
2023-05-03T16:57:37.512Z,6.27
2023-05-03T17:00:08.883Z,5.90
2023-05-03T17:02:37.741Z,6.83
2023-05-03T17:05:08.750Z,6.33
2023-05-03T17:07:37.386Z,10.50
2023-05-03T17:10:06.952Z,8.70
2023-05-03T17:12:35.516Z,8.77
2023-05-03T17:15:03.737Z,8.47
2023-05-03T17:17:33.054Z,9.57
2023-05-03T17:20:01.346Z,8.87
2023-05-03T17:22:31.249Z,7.70
2023-05-03T17:24:59.511Z,7.20
2023-05-03T17:27:27.711Z,8.00
2023-05-03T17:29:57.418Z,10.17
2023-05-03T17:32:25.741Z,6.87
2023-05-03T17:34:53.919Z,6.47
2023-05-03T17:37:23.715Z,5.10
2023-05-03T17:39:53.265Z,6.47
2023-05-03T17:42:21.833Z,7.20
2023-05-03T17:44:53.054Z,6.17
2023-05-03T17:47:21.241Z,5.30
2023-05-03T17:49:49.389Z,5.67
2023-05-03T17:52:17.620Z,6.13
2023-05-03T17:54:46.140Z,8.03
2023-05-03T17:57:15.676Z,6.40
2023-05-03T17:59:43.832Z,7.97
2023-05-03T18:02:13.378Z,11.53
2023-05-03T18:04:41.742Z,8.57
2023-05-03T18:07:09.944Z,4.77
2023-05-03T18:09:38.102Z,7.30
2023-05-03T18:12:06.411Z,6.80
2023-05-03T18:14:37.538Z,6.33
2023-05-03T18:17:07.376Z,7.33
2023-05-03T18:19:36.077Z,6.43
2023-05-03T18:22:04.437Z,5.07
2023-05-03T18:24:32.716Z,9.70
2023-05-03T18:27:00.904Z,9.07
2023-05-03T18:29:29.113Z,9.57
2023-05-03T18:31:58.793Z,11.63
2023-05-03T18:34:27.700Z,9.77
2023-05-03T18:36:55.856Z,8.10
2023-05-03T18:39:24.467Z,9.33
2023-05-03T18:41:52.684Z,9.80
2023-05-03T18:44:23.882Z,9.13
2023-05-03T18:46:52.305Z,9.90
2023-05-03T18:49:22.848Z,12.43
2023-05-03T18:51:51.076Z,12.30
2023-05-03T18:54:20.302Z,9.23
2023-05-03T18:56:48.479Z,11.03
2023-05-03T18:59:16.302Z,9.73
2023-05-03T19:01:44.213Z,17.47
2023-05-03T19:04:13.875Z,12.63
2023-05-03T19:06:43.289Z,10.17
2023-05-03T19:09:11.851Z,13.70
2023-05-03T19:11:41.537Z,7.93
2023-05-03T19:14:09.435Z,11.10
2023-05-03T19:16:37.418Z,11.13
2023-05-03T19:19:05.302Z,11.87
2023-05-03T19:21:34.862Z,11.70
2023-05-03T19:24:04.162Z,11.30
2023-05-03T19:26:32.022Z,9.57
2023-05-03T19:28:59.842Z,10.33
2023-05-03T19:31:27.787Z,11.43
2023-05-03T19:33:55.796Z,9.73
2023-05-03T19:36:23.627Z,10.60
2023-05-03T19:38:51.683Z,8.47
2023-05-03T19:41:21.358Z,10.23
2023-05-03T19:43:49.202Z,13.60
2023-05-03T19:46:20.959Z,13.50
2023-05-03T19:48:48.807Z,13.70
2023-05-03T19:51:17.845Z,10.90
2023-05-03T19:53:48.040Z,7.57
2023-05-03T19:56:18.252Z,8.87
2023-05-03T19:58:47.457Z,11.83
2023-05-03T20:01:15.312Z,12.30
2023-05-03T20:03:43.337Z,9.70
2023-05-03T20:06:11.240Z,8.83
2023-05-03T20:08:39.109Z,13.33
2023-05-03T20:11:07.079Z,9.33
2023-05-03T20:13:35.115Z,11.70
2023-05-03T20:16:06.075Z,9.83
2023-05-03T20:18:33.950Z,10.13
2023-05-03T20:21:01.794Z,12.53
2023-05-03T20:23:29.678Z,15.57
2023-05-03T20:25:57.514Z,10.53
2023-05-03T20:28:25.481Z,7.93
2023-05-03T20:30:53.312Z,9.87
2023-05-03T20:33:22.508Z,10.43
2023-05-03T20:35:50.341Z,11.73
2023-05-03T20:38:18.257Z,8.87
2023-05-03T20:40:46.081Z,14.73
2023-05-03T20:43:13.964Z,10.67
2023-05-03T20:45:41.867Z,9.47
2023-05-03T20:48:09.762Z,7.40
2023-05-03T20:50:39.056Z,13.27
2023-05-03T20:53:06.882Z,13.20
2023-05-03T20:55:38.458Z,8.60
2023-05-03T20:58:06.281Z,7.57
2023-05-03T21:00:34.135Z,9.50
2023-05-03T21:03:02.088Z,8.67
2023-05-03T21:05:30.043Z,7.33
2023-05-03T21:07:59.200Z,10.30
2023-05-03T21:10:27.478Z,10.23
2023-05-03T21:12:55.300Z,11.43
2023-05-03T21:15:23.178Z,13.07
2023-05-03T21:17:51.391Z,10.67
2023-05-03T21:20:19.693Z,12.87
2023-05-03T21:22:48.228Z,10.73
2023-05-03T21:25:17.783Z,13.47
2023-05-03T21:27:46.254Z,9.00
2023-05-03T21:30:14.796Z,9.53
2023-05-03T21:32:43.938Z,10.67
2023-05-03T21:35:12.753Z,8.07
2023-05-03T21:37:41.001Z,8.67
2023-05-03T21:40:09.755Z,12.47
2023-05-03T21:42:39.592Z,8.67
2023-05-03T21:45:08.346Z,10.47
2023-05-03T21:47:36.517Z,10.17
2023-05-03T21:50:05.927Z,12.40
2023-05-03T21:52:34.612Z,12.97
2023-05-03T21:55:02.762Z,15.07
2023-05-03T21:57:33.020Z,12.00
2023-05-03T22:00:03.272Z,11.23
2023-05-03T22:02:31.701Z,8.63
2023-05-03T22:05:00.155Z,14.47
2023-05-03T22:07:28.339Z,9.27
2023-05-03T22:09:56.471Z,12.20
2023-05-03T22:12:25.174Z,8.53
2023-05-03T22:14:54.163Z,11.63
2023-05-03T22:17:24.780Z,17.10
2023-05-03T22:19:53.043Z,11.60
2023-05-03T22:22:21.234Z,18.40
2023-05-03T22:24:49.406Z,10.27
2023-05-03T22:27:17.560Z,10.13
2023-05-03T22:29:45.879Z,8.70
2023-05-03T22:32:14.080Z,9.83
2023-05-03T22:34:44.446Z,8.93
2023-05-03T22:37:12.622Z,10.77
2023-05-03T22:39:40.815Z,8.87
2023-05-03T22:42:09.013Z,14.57
2023-05-03T22:44:38.346Z,9.07
2023-05-03T22:47:06.534Z,12.20
2023-05-03T22:49:34.691Z,11.50
2023-05-03T22:52:04.525Z,11.20
2023-05-03T22:54:32.697Z,11.47
2023-05-03T22:57:01.153Z,9.10
2023-05-03T22:59:29.413Z,10.10
2023-05-03T23:01:57.583Z,15.03
2023-05-03T23:04:26.034Z,11.97
2023-05-03T23:06:54.751Z,9.77
2023-05-03T23:09:24.262Z,8.50
2023-05-03T23:11:52.405Z,19.27
2023-05-03T23:14:20.663Z,10.83
2023-05-03T23:16:48.939Z,12.17
2023-05-03T23:19:17.177Z,8.37
2023-05-03T23:21:45.372Z,13.03
2023-05-03T23:24:13.520Z,9.33
2023-05-03T23:26:43.381Z,10.07
2023-05-03T23:29:11.938Z,12.37
2023-05-03T23:31:40.443Z,11.07
2023-05-03T23:34:09.055Z,11.40
2023-05-03T23:36:37.226Z,8.67
2023-05-03T23:39:05.480Z,10.87
2023-05-03T23:41:34.014Z,9.53
2023-05-03T23:44:03.725Z,10.73
2023-05-03T23:46:33.625Z,9.90
2023-05-03T23:49:01.907Z,9.17
2023-05-03T23:51:30.051Z,10.97
2023-05-03T23:53:58.241Z,9.27
2023-05-03T23:56:26.680Z,10.17
2023-05-03T23:58:54.899Z,8.53
